Iron Mountain, California
Current Conditions -  °F | °C
As of 1:35 AM on Monday 24 Nov 2014 (Local Time) from KPVF Reporting Station
Few Clouds Few Clouds  
Wind Chill: 39°   Ceiling: Unl
Heat Index: 45°   Visibility: 10mi
Dew Point: 25°   Wind: 10mph
Humidity: 46%   Direction: 60°ENE
Pressure: 30.32"   Gusts: NA
Location:  38.5644°N, 120.32°W
Report Text: KPVF 240935Z AUTO 06009KT 10SM FEW041 07/M04 A3032 RMK AO1
Loading
Personal Weather Stations






























Interactive Weather Map New forecast layout! Learn more

10-Day Weather Forecast

Advertisements
Track Severe Weather on mobile